Time;durP1;ratioP1;P1;durP2;ratioP2;P2;SDS_P1;SDS_P2;PMS_P1;PMS_P2;Temp;Humidity;BMP_temperature;BMP_pressure;BME280_temperature;BME280_humidity;BME280_pressure;Samples;Min_cycle;Max_cycle;Signal;HPM_P1;HPM_P2
2022/04/20 00:01:37;;;;;;;7.20;2.15;;;;;;;9.07;52.73;101303.91;5021743;28;20309;-78
2022/04/20 00:04:03;;;;;;;3.90;2.10;;;;;;;9.06;52.78;101299.69;5052727;28;20040;-78
2022/04/20 00:06:30;;;;;;;3.60;2.10;;;;;;;9.03;53.19;101302.53;5037441;28;20272;-78
2022/04/20 00:08:56;;;;;;;3.63;2.58;;;;;;;9.00;53.55;101297.63;5020122;28;20068;-78
2022/04/20 00:11:21;;;;;;;5.60;2.15;;;;;;;8.99;54.02;101303.75;5042219;28;20753;-78
2022/04/20 00:13:46;;;;;;;6.22;2.00;;;;;;;8.99;54.53;101300.38;5037862;28;20481;-78
2022/04/20 00:16:12;;;;;;;7.57;2.47;;;;;;;8.94;54.55;101296.38;5057407;28;20094;-78
2022/04/20 00:18:37;;;;;;;3.95;2.30;;;;;;;8.91;54.61;101298.41;5057672;28;20285;-78
2022/04/20 00:21:03;;;;;;;4.57;2.53;;;;;;;8.88;54.80;101296.91;5023526;28;20768;-78
2022/04/20 00:23:28;;;;;;;3.92;1.90;;;;;;;8.84;55.01;101295.56;5040161;28;20040;-78
2022/04/20 00:25:54;;;;;;;3.53;2.53;;;;;;;8.82;55.29;101299.25;5041239;28;20269;-77
2022/04/20 00:28:19;;;;;;;3.55;1.98;;;;;;;8.77;55.53;101294.44;5053452;28;20032;-78
2022/04/20 00:30:45;;;;;;;3.72;1.92;;;;;;;8.75;55.75;101301.53;5038282;28;20533;-78
2022/04/20 00:33:10;;;;;;;4.20;2.55;;;;;;;8.71;56.05;101298.38;5036933;28;20029;-78
2022/04/20 00:35:36;;;;;;;4.78;2.55;;;;;;;8.67;56.49;101291.03;5021130;28;20394;-78
2022/04/20 00:38:01;;;;;;;2.90;1.80;;;;;;;8.63;56.96;101300.00;5039036;28;20017;-78
2022/04/20 00:40:27;;;;;;;4.95;2.28;;;;;;;8.61;57.17;101294.13;5036112;28;20052;-78
2022/04/20 00:42:53;;;;;;;5.57;2.40;;;;;;;8.55;57.73;101298.03;5054729;28;20139;-78
2022/04/20 00:45:19;;;;;;;4.68;2.30;;;;;;;8.49;57.73;101301.16;5041050;28;20111;-78
2022/04/20 00:47:44;;;;;;;5.55;2.45;;;;;;;8.40;57.70;101302.75;5054059;28;20097;-78
2022/04/20 00:50:14;;;;;;;8.68;2.88;;;;;;;8.34;57.53;101303.22;5023049;28;20782;-78
2022/04/20 00:52:40;;;;;;;3.78;2.55;;;;;;;8.28;57.75;101303.75;5040487;28;20036;-78
2022/04/20 00:55:06;;;;;;;3.70;2.38;;;;;;;8.25;57.66;101306.59;5040751;28;20032;-77
2022/04/20 00:57:32;;;;;;;3.90;2.25;;;;;;;8.21;57.74;101316.34;5059242;28;20024;-77
2022/04/20 01:00:03;;;;;;;5.18;2.78;;;;;;;8.17;57.44;101302.91;5058290;28;20044;-78
2022/04/20 01:02:37;;;;;;;5.25;2.67;;;;;;;8.13;57.39;101301.50;5025003;28;20035;-78
2022/04/20 01:05:03;;;;;;;5.25;2.63;;;;;;;8.09;57.94;101299.31;5040743;28;20033;-76
2022/04/20 01:07:41;;;;;;;5.03;2.60;;;;;;;8.03;58.57;101302.41;5040155;28;20028;-78
2022/04/20 01:10:25;;;;;;;5.82;2.60;;;;;;;7.95;58.54;101306.44;5043957;28;20622;-77
2022/04/20 01:13:29;;;;;;;5.20;2.15;;;;;;;7.90;58.83;101305.19;5008887;28;20044;-77
2022/04/20 01:16:20;;;;;;;6.75;2.35;;;;;;;7.85;59.46;101302.94;4999953;28;20544;-77
2022/04/20 01:19:04;;;;;;;5.80;2.25;;;;;;;7.80;59.42;101303.34;5014490;28;20522;-77
2022/04/20 01:22:06;;;;;;;3.35;2.30;;;;;;;7.73;60.03;101309.94;4996606;28;20038;-77
2022/04/20 01:25:02;;;;;;;6.78;2.47;;;;;;;7.66;60.26;101310.56;4989827;28;20076;-77
2022/04/20 01:27:30;;;;;;;4.13;2.47;;;;;;;7.58;60.19;101303.44;5058804;28;20555;-78
2022/04/20 01:29:56;;;;;;;5.28;2.33;;;;;;;7.51;59.57;101297.94;5056863;28;20044;-78
2022/04/20 01:32:39;;;;;;;4.07;2.60;;;;;;;7.45;59.69;101311.34;5039064;28;20551;-77
2022/04/20 01:35:10;;;;;;;5.38;2.40;;;;;;;7.43;60.24;101304.69;5038115;28;20044;-77
2022/04/20 01:37:36;;;;;;;5.60;2.42;;;;;;;7.40;60.44;101303.16;5026539;28;20040;-77
2022/04/20 01:40:02;;;;;;;5.43;2.75;;;;;;;7.39;60.60;101311.84;5041253;28;20597;-77
2022/04/20 01:42:28;;;;;;;4.38;2.20;;;;;;;7.37;60.68;101306.00;5040970;28;20041;-77
2022/04/20 01:45:00;;;;;;;5.60;2.50;;;;;;;7.35;60.65;101311.28;5028132;28;20374;-77
2022/04/20 01:48:04;;;;;;;4.57;2.33;;;;;;;7.35;60.96;101302.72;5037392;28;20025;-77
2022/04/20 01:53:49;;;;;;;3.95;2.40;;;;;;;7.29;60.53;101301.44;5061868;28;20094;-77
2022/04/20 01:56:34;;;;;;;7.25;2.38;;;;;;;7.25;60.04;101307.78;5039017;28;20035;-77
2022/04/20 01:59:09;;;;;;;5.25;2.53;;;;;;;7.20;60.16;101308.16;5041118;28;20638;-78
2022/04/20 02:04:42;;;;;;;5.03;2.63;;;;;;;7.08;60.35;101321.19;5044857;28;20029;-77
2022/04/20 02:07:08;;;;;;;5.30;2.08;;;;;;;7.03;61.33;101313.81;5043661;28;20567;-77
2022/04/20 02:09:39;;;;;;;4.90;2.40;;;;;;;7.00;61.34;101314.06;5041962;28;20275;-77
2022/04/20 02:12:12;;;;;;;4.65;2.55;;;;;;;6.98;61.09;101315.94;5043302;28;20033;-77
2022/04/20 02:15:12;;;;;;;7.60;2.30;;;;;;;6.95;61.42;101317.00;5060275;28;20059;-77
2022/04/20 02:17:58;;;;;;;6.30;2.63;;;;;;;6.93;61.31;101321.47;5063532;28;20655;-77
2022/04/20 02:20:33;;;;;;;6.80;2.17;;;;;;;6.88;61.58;101315.03;5030391;28;20036;-77
2022/04/20 02:22:59;;;;;;;6.00;2.33;;;;;;;6.83;61.31;101312.78;5033962;28;20024;-77
2022/04/20 02:25:26;;;;;;;7.85;2.42;;;;;;;6.82;60.73;101314.56;5044214;28;21603;-77
2022/04/20 02:27:52;;;;;;;5.28;2.67;;;;;;;6.83;60.81;101315.38;5044047;28;20058;-77
2022/04/20 02:30:17;;;;;;;5.13;2.17;;;;;;;6.78;60.60;101310.59;5050722;28;20047;-77
2022/04/20 02:32:43;;;;;;;3.45;2.40;;;;;;;6.76;61.39;101307.31;5049322;28;20037;-77
2022/04/20 02:35:08;;;;;;;3.90;2.22;;;;;;;6.75;61.34;101307.41;5025849;28;20033;-77
2022/04/20 02:37:35;;;;;;;5.75;2.38;;;;;;;6.73;61.66;101309.28;5039572;28;20033;-77
2022/04/20 02:40:01;;;;;;;4.85;2.60;;;;;;;6.72;61.66;101310.22;5063517;28;20037;-77
2022/04/20 02:42:27;;;;;;;7.15;2.20;;;;;;;6.74;61.42;101318.66;5040454;28;20154;-77
2022/04/20 02:44:53;;;;;;;4.07;2.70;;;;;;;6.70;60.98;101312.09;5044942;28;20028;-78
2022/04/20 02:47:18;;;;;;;7.68;2.80;;;;;;;6.62;61.22;101310.13;5028377;28;20024;-77
2022/04/20 02:49:44;;;;;;;3.55;2.22;;;;;;;6.60;60.45;101317.97;5048395;28;20028;-77
2022/04/20 02:52:09;;;;;;;9.43;2.80;;;;;;;6.60;61.04;101320.53;5044976;28;20036;-77
2022/04/20 02:54:35;;;;;;;5.88;2.30;;;;;;;6.60;61.51;101319.72;5042889;28;20024;-77
2022/04/20 02:57:01;;;;;;;5.07;2.40;;;;;;;6.59;62.04;101320.66;5043203;28;20029;-77
2022/04/20 02:59:26;;;;;;;6.57;2.60;;;;;;;6.57;62.43;101330.25;5044362;28;20400;-78
2022/04/20 03:01:54;;;;;;;12.32;2.95;;;;;;;6.53;62.25;101327.09;5042961;28;20056;-77
2022/04/20 03:04:20;;;;;;;4.72;2.40;;;;;;;6.52;62.37;101333.19;5041993;28;20024;-78
2022/04/20 03:06:46;;;;;;;4.28;2.63;;;;;;;6.50;62.33;101326.50;5041077;28;20025;-77
2022/04/20 03:09:18;;;;;;;4.25;2.47;;;;;;;6.46;61.99;101336.25;5041867;28;20489;-77
2022/04/20 03:11:44;;;;;;;4.82;2.53;;;;;;;6.47;61.19;101337.88;5061278;28;20031;-77
2022/04/20 03:14:11;;;;;;;4.47;2.75;;;;;;;6.41;61.70;101334.00;5055515;28;20032;-77
2022/04/20 03:16:37;;;;;;;4.60;2.33;;;;;;;6.39;62.41;101335.06;5040510;28;20656;-77
2022/04/20 03:19:09;;;;;;;3.75;2.50;;;;;;;6.36;62.40;101323.22;5042901;28;20028;-77
2022/04/20 03:21:34;;;;;;;4.93;2.60;;;;;;;6.32;62.57;101329.53;5025409;28;20063;-77
2022/04/20 03:24:02;;;;;;;5.38;3.05;;;;;;;6.29;62.39;101328.94;5041059;28;20035;-77
2022/04/20 03:26:47;;;;;;;6.55;2.90;;;;;;;6.29;61.76;101332.34;5059236;28;20314;-77
2022/04/20 03:29:32;;;;;;;6.25;2.53;;;;;;;6.25;61.84;101333.50;5060888;28;20045;-77
2022/04/20 03:32:07;;;;;;;4.15;2.60;;;;;;;6.24;62.88;101348.13;5041346;28;20028;-77
2022/04/20 03:34:33;;;;;;;4.80;2.78;;;;;;;6.23;62.55;101348.25;5028536;28;20029;-77
2022/04/20 03:36:59;;;;;;;3.72;2.53;;;;;;;6.20;63.15;101338.19;5042220;28;20062;-77
2022/04/20 03:39:24;;;;;;;8.50;2.97;;;;;;;6.18;63.31;101340.88;5040486;28;20057;-77
2022/04/20 03:41:50;;;;;;;5.18;2.75;;;;;;;6.16;63.44;101337.59;5037259;28;20691;-79
2022/04/20 03:44:15;;;;;;;6.25;2.88;;;;;;;6.13;63.70;101337.81;5058362;28;20055;-77
2022/04/20 03:46:41;;;;;;;8.93;3.53;;;;;;;6.10;64.22;101337.22;5025010;28;20024;-77
2022/04/20 03:49:06;;;;;;;4.57;2.92;;;;;;;6.07;64.00;101340.84;5041841;28;20903;-77
2022/04/20 03:51:32;;;;;;;4.65;2.72;;;;;;;6.05;63.69;101340.16;5040020;28;20036;-77
2022/04/20 03:53:59;;;;;;;7.97;2.80;;;;;;;6.02;64.25;101338.59;5041977;28;20025;-77
2022/04/20 03:57:03;;;;;;;7.25;3.00;;;;;;;6.01;64.38;101344.69;5027425;28;20036;-77
2022/04/20 03:59:13;;;;;;;5.20;2.80;;;;;;;6.00;64.29;101337.88;5041674;28;20036;-77
2022/04/20 04:01:39;;;;;;;5.82;2.90;;;;;;;5.99;64.56;101338.84;5021928;28;20036;-77
2022/04/20 04:04:05;;;;;;;4.80;3.05;;;;;;;5.97;64.52;101345.03;5042220;28;20032;-77
2022/04/20 04:06:32;;;;;;;5.30;3.05;;;;;;;5.94;64.46;101346.03;5041121;28;20086;-77
2022/04/20 04:08:58;;;;;;;5.22;2.90;;;;;;;5.91;64.66;101348.81;5043275;28;20303;-77
2022/04/20 04:11:24;;;;;;;5.43;2.88;;;;;;;5.87;64.66;101352.56;5024385;28;20553;-77
2022/04/20 04:13:49;;;;;;;6.07;2.90;;;;;;;5.84;65.11;101357.97;5042135;28;20054;-77
2022/04/20 04:16:15;;;;;;;5.70;2.92;;;;;;;5.80;65.36;101359.94;5039090;28;20490;-77
2022/04/20 04:18:41;;;;;;;4.30;2.80;;;;;;;5.78;65.23;101363.53;5041475;28;20073;-77
2022/04/20 04:21:09;;;;;;;8.52;2.67;;;;;;;5.77;65.49;101364.47;5060114;28;20111;-77
2022/04/20 04:23:34;;;;;;;4.88;3.10;;;;;;;5.76;65.56;101366.19;5040182;28;20384;-77
2022/04/20 04:26:10;;;;;;;5.70;2.42;;;;;;;5.74;65.32;101369.84;5025082;28;20032;-77
2022/04/20 04:28:41;;;;;;;6.28;2.85;;;;;;;5.71;65.92;101358.00;5041029;28;20055;-77
2022/04/20 04:31:07;;;;;;;5.15;2.80;;;;;;;5.70;65.93;101361.50;5041835;28;20037;-77
2022/04/20 04:33:35;;;;;;;7.32;2.92;;;;;;;5.69;65.61;101369.34;5037141;28;20036;-77
2022/04/20 04:36:01;;;;;;;8.88;3.25;;;;;;;5.66;66.40;101373.78;5022939;28;20534;-77
2022/04/20 04:38:30;;;;;;;6.65;2.85;;;;;;;5.63;66.16;101376.59;5041025;28;20040;-77
2022/04/20 04:40:56;;;;;;;5.20;2.70;;;;;;;5.64;66.77;101378.22;5022900;28;20040;-77
2022/04/20 04:43:22;;;;;;;6.25;3.13;;;;;;;5.64;66.65;101375.63;5038817;28;20101;-77
2022/04/20 04:48:58;;;;;;;7.68;2.80;;;;;;;5.62;67.33;101374.13;5055937;28;20127;-77
2022/04/20 04:51:23;;;;;;;6.90;2.88;;;;;;;5.59;67.65;101374.31;5021841;28;20037;-77
2022/04/20 04:53:49;;;;;;;5.55;2.67;;;;;;;5.58;67.84;101377.84;5038214;28;20476;-77
2022/04/20 04:56:26;;;;;;;7.30;3.35;;;;;;;5.58;68.32;101380.41;5037119;28;20036;-76
2022/04/20 04:58:52;;;;;;;6.03;2.90;;;;;;;5.56;68.34;101377.13;5039679;28;20083;-77
2022/04/20 05:01:19;;;;;;;5.85;2.80;;;;;;;5.57;68.39;101382.13;5037935;28;20657;-77
2022/04/20 05:03:45;;;;;;;5.45;2.80;;;;;;;5.56;68.78;101377.13;5038509;28;20040;-77
2022/04/20 05:06:12;;;;;;;11.25;2.92;;;;;;;5.56;68.85;101383.09;5035808;28;20544;-77
2022/04/20 05:09:00;;;;;;;8.35;3.17;;;;;;;5.57;68.61;101383.91;5024351;28;20523;-77
2022/04/20 05:11:27;;;;;;;4.82;2.88;;;;;;;5.58;68.51;101391.53;5035947;28;20098;-78
2022/04/20 05:13:55;;;;;;;7.18;2.58;;;;;;;5.61;68.95;101391.31;5038007;28;20020;-77
2022/04/20 05:16:22;;;;;;;9.88;2.80;;;;;;;5.63;68.84;101393.75;5041335;28;20029;-77
2022/04/20 05:18:47;;;;;;;6.75;3.33;;;;;;;5.65;69.26;101395.31;5060712;28;20025;-77
2022/04/20 05:21:13;;;;;;;6.45;3.00;;;;;;;5.68;69.09;101389.09;5039899;28;20025;-77
2022/04/20 05:23:40;;;;;;;6.53;3.08;;;;;;;5.70;69.17;101392.38;5038295;28;20519;-76
2022/04/20 05:26:06;;;;;;;5.53;2.72;;;;;;;5.72;69.57;101394.84;5022395;28;20139;-76
2022/04/20 05:28:36;;;;;;;6.65;2.83;;;;;;;5.75;69.46;101395.47;5043665;28;20128;-77
2022/04/20 05:31:02;;;;;;;4.13;2.90;;;;;;;5.76;69.57;101399.66;5046162;28;20036;-77
2022/04/20 05:33:28;;;;;;;6.70;3.10;;;;;;;5.81;69.60;101396.78;5056868;28;20025;-77
2022/04/20 05:35:54;;;;;;;8.05;3.55;;;;;;;5.88;69.33;101399.72;5044216;28;20047;-77
2022/04/20 05:43:49;;;;;;;6.55;3.65;;;;;;;6.18;68.24;101404.44;5040892;28;20303;-76
2022/04/20 05:46:20;;;;;;;5.93;2.50;;;;;;;6.29;67.61;101401.06;5025184;28;20116;-77
2022/04/20 05:48:52;;;;;;;11.50;3.30;;;;;;;6.41;66.77;101400.16;5042592;28;20075;-76
2022/04/20 05:51:19;;;;;;;5.47;2.90;;;;;;;6.54;65.46;101400.88;5036718;28;21171;-77
2022/04/20 05:53:45;;;;;;;8.35;3.17;;;;;;;6.85;62.07;101402.91;5028209;28;20023;-76
2022/04/20 05:56:11;;;;;;;6.80;3.17;;;;;;;7.02;62.42;101398.09;5023977;28;20112;-77
2022/04/20 05:58:40;;;;;;;5.13;2.92;;;;;;;7.30;62.49;101400.28;5043836;28;20471;-76
2022/04/20 06:01:07;;;;;;;6.20;3.15;;;;;;;7.62;61.64;101399.53;5026815;28;20505;-76
2022/04/20 06:03:56;;;;;;;6.35;3.20;;;;;;;7.99;60.12;101390.47;5051373;28;20107;-77
2022/04/20 06:06:42;;;;;;;6.90;2.78;;;;;;;8.32;59.20;101395.56;5025634;28;20498;-77
2022/04/20 06:09:26;;;;;;;8.63;3.25;;;;;;;8.48;58.65;101395.16;5043235;28;20132;-77
2022/04/20 06:11:53;;;;;;;6.53;3.00;;;;;;;8.61;58.55;101392.34;5044690;28;20519;-77
2022/04/20 06:14:22;;;;;;;6.43;3.00;;;;;;;8.69;57.54;101395.94;5043655;28;20052;-77
2022/04/20 06:16:54;;;;;;;9.52;3.17;;;;;;;8.60;57.27;101403.66;5060082;28;20028;-77
2022/04/20 06:19:28;;;;;;;9.40;2.90;;;;;;;8.47;57.75;101398.69;5039907;28;20099;-76
2022/04/20 06:22:26;;;;;;;5.50;2.70;;;;;;;8.29;58.47;101396.66;5018703;28;20048;-76
2022/04/20 06:25:11;;;;;;;7.55;3.28;;;;;;;8.29;58.52;101401.00;5030627;28;20048;-76
2022/04/20 06:27:53;;;;;;;5.50;2.58;;;;;;;8.16;58.93;101411.53;5028440;28;20036;-77
2022/04/20 06:30:57;;;;;;;5.32;2.70;;;;;;;8.13;59.54;101402.25;5032048;28;20040;-77
2022/04/20 06:33:45;;;;;;;8.55;3.42;;;;;;;8.17;59.49;101405.41;5025868;28;20460;-77
2022/04/20 06:36:30;;;;;;;6.10;2.92;;;;;;;8.28;59.58;101405.34;5042053;28;20110;-77
2022/04/20 06:39:05;;;;;;;5.50;3.10;;;;;;;8.37;59.76;101402.00;5040265;28;20028;-77
2022/04/20 06:41:51;;;;;;;4.82;3.05;;;;;;;8.50;58.51;101406.19;5041495;28;20086;-78
2022/04/20 06:44:35;;;;;;;8.27;2.85;;;;;;;8.63;58.06;101404.22;5061314;28;20082;-78
2022/04/20 06:47:17;;;;;;;8.93;3.03;;;;;;;8.88;56.63;101408.13;5040353;28;20020;-78
2022/04/20 06:50:18;;;;;;;15.90;4.47;;;;;;;9.22;56.82;101401.84;5030544;28;20573;-78
2022/04/20 06:58:32;;;;;;;10.43;3.42;;;;;;;10.06;54.95;101391.03;5054814;28;20036;-78
2022/04/20 07:01:04;;;;;;;8.88;2.85;;;;;;;10.53;52.35;101396.28;5028281;28;20133;-80
2022/04/20 07:03:45;;;;;;;9.68;3.20;;;;;;;11.40;50.63;101389.06;5040556;28;20704;-78
2022/04/20 07:06:34;;;;;;;10.15;2.88;;;;;;;12.42;47.65;101388.59;5058855;28;20063;-79
2022/04/20 07:09:32;;;;;;;13.13;3.38;;;;;;;13.10;45.29;101386.13;5025599;28;20052;-78
2022/04/20 07:12:12;;;;;;;7.50;2.75;;;;;;;13.67;44.13;101390.66;5040047;28;20071;-79
2022/04/20 07:14:39;;;;;;;9.45;3.13;;;;;;;14.28;42.87;101380.66;5028891;28;20021;-79
2022/04/20 07:17:06;;;;;;;5.75;3.03;;;;;;;14.55;42.49;101387.31;5040009;28;20075;-79
2022/04/20 07:19:40;;;;;;;8.40;2.80;;;;;;;14.99;41.89;101382.44;5027016;28;20036;-79
2022/04/20 07:22:37;;;;;;;6.55;2.70;;;;;;;15.18;41.48;101380.34;5041031;28;20448;-80
2022/04/20 07:25:09;;;;;;;7.88;3.03;;;;;;;15.58;39.57;101381.91;5039464;28;20512;-79
2022/04/20 07:27:41;;;;;;;7.35;3.25;;;;;;;15.48;39.80;101380.50;5044198;28;21576;-79
2022/04/20 07:30:30;;;;;;;8.82;3.00;;;;;;;15.75;39.31;101380.00;5058073;28;20059;-79
2022/04/20 07:33:16;;;;;;;11.50;3.95;;;;;;;16.20;39.06;101382.72;5007770;28;20040;-79
2022/04/20 07:36:21;;;;;;;7.82;3.35;;;;;;;16.69;38.05;101381.38;5023089;28;20048;-79
2022/04/20 07:38:55;;;;;;;5.35;2.65;;;;;;;16.59;37.65;101380.81;5044854;28;20046;-80
2022/04/20 07:41:40;;;;;;;9.00;2.53;;;;;;;16.86;36.88;101382.81;5057135;28;20166;-79
2022/04/20 07:44:21;;;;;;;6.28;2.42;;;;;;;17.14;36.97;101382.13;5045329;28;20033;-81
2022/04/20 07:46:54;;;;;;;11.48;2.20;;;;;;;17.60;36.02;101386.22;5026100;28;20051;-79
2022/04/20 07:52:26;;;;;;;6.07;2.40;;;;;;;17.70;33.64;101387.50;5044357;28;20489;-78
2022/04/20 07:55:09;;;;;;;5.68;2.25;;;;;;;17.67;33.55;101390.50;5041515;28;20333;-79
2022/04/20 07:57:43;;;;;;;5.72;2.10;;;;;;;18.08;32.95;101387.22;5062183;28;20051;-79
2022/04/20 08:00:27;;;;;;;2.65;1.90;;;;;;;17.75;32.70;101389.56;5040751;28;20051;-80
2022/04/20 08:03:14;;;;;;;9.13;2.40;;;;;;;17.84;32.38;101385.00;5042094;28;20048;-80
2022/04/20 08:05:41;;;;;;;5.82;2.00;;;;;;;18.00;32.82;101387.34;5044468;28;20024;-80
2022/04/20 08:08:08;;;;;;;3.17;1.90;;;;;;;18.12;32.51;101387.66;5042621;28;20039;-80
2022/04/20 08:10:34;;;;;;;4.75;2.28;;;;;;;17.88;32.26;101394.16;5026774;28;20059;-79
2022/04/20 08:13:00;;;;;;;9.02;2.13;;;;;;;18.25;31.06;101387.75;5058991;28;20037;-80
2022/04/20 08:15:27;;;;;;;3.45;2.03;;;;;;;18.32;31.61;101392.22;5043630;28;20035;-79
2022/04/20 08:17:55;;;;;;;9.88;2.47;;;;;;;18.34;31.39;101391.00;5046869;28;20032;-80
2022/04/20 08:20:47;;;;;;;5.05;1.80;;;;;;;18.41;30.53;101391.06;5033218;28;20045;-81
2022/04/20 08:23:13;;;;;;;5.63;2.00;;;;;;;18.72;30.91;101397.69;5041351;28;20055;-80
2022/04/20 08:25:41;;;;;;;6.63;1.95;;;;;;;18.50;31.42;101395.16;5057033;28;20028;-80
2022/04/20 08:28:08;;;;;;;6.13;2.17;;;;;;;18.41;31.09;101399.75;5042262;28;20046;-80
2022/04/20 08:30:35;;;;;;;9.05;2.20;;;;;;;18.83;30.81;101400.56;5060928;28;20486;-80
2022/04/20 08:33:01;;;;;;;8.95;3.00;;;;;;;18.29;31.10;101402.09;5044727;28;20480;-80
2022/04/20 08:35:26;;;;;;;8.05;2.00;;;;;;;18.44;30.16;101399.38;5056274;28;20128;-80
2022/04/20 08:37:52;;;;;;;5.75;2.13;;;;;;;18.64;30.91;101393.41;5041921;28;20048;-80
2022/04/20 08:40:17;;;;;;;6.88;1.85;;;;;;;19.21;29.46;101394.03;5040386;28;20040;-81
2022/04/20 08:42:43;;;;;;;3.53;1.83;;;;;;;19.22;29.88;101398.28;5038094;28;20028;-79
2022/04/20 08:45:09;;;;;;;23.40;2.65;;;;;;;19.04;29.62;101388.31;5039484;28;20546;-80
2022/04/20 08:47:37;;;;;;;3.10;1.98;;;;;;;18.75;29.59;101395.47;5039965;28;20070;-80
2022/04/20 08:50:08;;;;;;;4.13;2.33;;;;;;;18.86;28.80;101392.31;5035158;28;20032;-79
2022/04/20 08:52:39;;;;;;;3.78;2.22;;;;;;;19.13;28.76;101384.50;5024912;28;20032;-80
2022/04/20 08:55:12;;;;;;;6.07;2.10;;;;;;;18.60;29.20;101386.91;5038259;28;20485;-80
2022/04/20 08:57:38;;;;;;;6.60;2.35;;;;;;;18.91;29.35;101377.78;5025225;28;20756;-80
2022/04/20 09:00:06;;;;;;;7.22;2.70;;;;;;;18.58;30.34;101378.44;5042489;28;20040;-80
2022/04/20 09:02:32;;;;;;;5.82;2.08;;;;;;;18.41;30.25;101384.00;5055377;28;20095;-80
2022/04/20 09:04:58;;;;;;;4.43;2.20;;;;;;;18.44;29.89;101388.88;5041659;28;20029;-80
2022/04/20 09:07:27;;;;;;;3.63;1.80;;;;;;;19.14;29.50;101377.47;5042488;28;20028;-80
2022/04/20 09:09:52;;;;;;;4.13;2.10;;;;;;;19.54;29.04;101377.50;5045037;28;20032;-81
2022/04/20 09:12:22;;;;;;;3.95;2.05;;;;;;;19.58;28.59;101374.25;5042424;28;20378;-81
2022/04/20 09:14:50;;;;;;;6.07;2.33;;;;;;;19.46;28.36;101370.63;5057979;28;20028;-81
2022/04/20 09:17:17;;;;;;;5.47;2.20;;;;;;;19.44;29.20;101373.44;5047350;28;20103;-81
2022/04/20 09:20:04;;;;;;;5.50;2.47;;;;;;;19.00;28.33;101379.22;5028034;28;20044;-78
2022/04/20 09:22:30;;;;;;;5.85;1.92;;;;;;;19.12;28.87;101375.03;5043934;28;20045;-81
2022/04/20 09:25:07;;;;;;;7.63;1.88;;;;;;;19.24;28.71;101377.88;5065218;28;20020;-79
2022/04/20 09:27:35;;;;;;;5.75;2.25;;;;;;;19.14;28.87;101375.63;5043998;28;20037;-81
2022/04/20 09:30:04;;;;;;;6.00;2.28;;;;;;;19.54;29.29;101370.41;5058945;28;20108;-81
2022/04/20 09:32:35;;;;;;;3.70;1.65;;;;;;;19.11;29.92;101364.69;5044326;28;20056;-82
2022/04/20 09:35:03;;;;;;;2.05;1.60;;;;;;;19.44;28.43;101370.81;5059413;28;20086;-80
2022/04/20 09:37:30;;;;;;;5.15;2.25;;;;;;;19.49;29.15;101364.16;5038184;28;20134;-80
2022/04/20 09:40:01;;;;;;;3.77;2.00;;;;;;;19.24;28.71;101367.34;5044697;28;20028;-80
2022/04/20 09:42:27;;;;;;;5.10;2.05;;;;;;;19.10;28.27;101360.44;5055109;28;20474;-80
2022/04/20 09:45:00;;;;;;;4.95;2.25;;;;;;;19.11;29.09;101360.25;5056995;28;21563;-81
2022/04/20 09:50:27;;;;;;;7.93;2.50;;;;;;;18.52;29.29;101352.97;5061157;28;20032;-80
2022/04/20 09:52:55;;;;;;;6.00;2.33;;;;;;;18.57;29.88;101350.53;5045580;28;20085;-80
2022/04/20 09:55:33;;;;;;;4.00;1.98;;;;;;;18.85;29.76;101347.84;5048015;28;20035;-80
2022/04/20 09:58:19;;;;;;;9.98;2.22;;;;;;;19.09;29.57;101340.44;5044154;28;20446;-81
2022/04/20 10:00:53;;;;;;;5.38;2.17;;;;;;;19.00;30.75;101337.19;5045279;28;20519;-80
2022/04/20 10:03:31;;;;;;;3.50;2.00;;;;;;;18.84;29.31;101340.97;5029264;28;20035;-79
2022/04/20 10:05:57;;;;;;;4.70;2.30;;;;;;;18.58;30.66;101331.97;5043204;28;20111;-81
2022/04/20 10:08:23;;;;;;;8.98;1.98;;;;;;;18.52;31.50;101326.69;5027971;28;20107;-81
2022/04/20 10:10:51;;;;;;;4.22;1.92;;;;;;;18.64;30.86;101327.75;5059107;28;20094;-80
2022/04/20 10:13:17;;;;;;;4.07;2.00;;;;;;;18.52;30.74;101327.50;5042224;28;20032;-80
2022/04/20 10:16:07;;;;;;;4.20;2.03;;;;;;;18.40;31.82;101329.88;5027465;28;20276;-81
2022/04/20 10:18:44;;;;;;;8.98;2.65;;;;;;;18.48;32.08;101329.72;5059069;28;20120;-82
2022/04/20 10:21:14;;;;;;;5.28;2.35;;;;;;;18.80;32.37;101314.31;5059040;28;20083;-83
2022/04/20 10:23:43;;;;;;;7.57;2.42;;;;;;;18.21;32.33;101320.88;5040812;28;20036;-81
2022/04/20 10:26:10;;;;;;;6.80;2.92;;;;;;;18.29;32.52;101314.69;5041300;28;20054;-80
2022/04/20 10:28:55;;;;;;;3.83;2.28;;;;;;;18.17;31.91;101311.78;5043494;28;20036;-82
2022/04/20 10:31:41;;;;;;;4.80;1.90;;;;;;;18.25;32.01;101302.94;5011806;28;20049;-81
2022/04/20 10:34:13;;;;;;;3.60;2.15;;;;;;;18.23;31.61;101304.94;5041353;28;20148;-79
2022/04/20 10:37:01;;;;;;;9.65;2.25;;;;;;;17.97;32.21;101310.84;5056053;28;20043;-79
2022/04/20 10:39:39;;;;;;;3.80;2.00;;;;;;;18.03;31.64;101312.72;5042683;28;20035;-81
2022/04/20 10:42:11;;;;;;;7.07;2.40;;;;;;;18.32;31.61;101303.78;5029966;28;20041;-80
2022/04/20 10:44:55;;;;;;;3.42;2.05;;;;;;;18.23;31.85;101297.91;5027762;28;20046;-79
2022/04/20 10:47:25;;;;;;;4.20;2.42;;;;;;;18.09;32.29;101290.94;5041769;28;20072;-78
2022/04/20 10:49:51;;;;;;;3.15;1.70;;;;;;;18.33;31.87;101287.03;5042389;28;20402;-78
2022/04/20 10:52:35;;;;;;;4.47;2.20;;;;;;;18.47;32.02;101265.06;5061028;28;20475;-80
2022/04/20 10:55:01;;;;;;;4.78;2.40;;;;;;;18.75;31.62;101271.22;5039892;28;20036;-79
2022/04/20 10:57:39;;;;;;;4.30;2.40;;;;;;;18.75;30.94;101268.59;5041132;28;20036;-78
2022/04/20 11:00:17;;;;;;;4.53;2.08;;;;;;;18.11;32.71;101261.91;5042596;28;20039;-80
2022/04/20 11:03:03;;;;;;;2.95;1.90;;;;;;;17.75;32.72;101268.13;5058293;28;20232;-79
2022/04/20 11:05:29;;;;;;;6.00;1.88;;;;;;;17.94;33.09;101269.28;5040047;28;20706;-79
2022/04/20 11:08:03;;;;;;;4.25;2.05;;;;;;;17.95;34.05;101273.50;5057419;28;20036;-80
2022/04/20 11:10:29;;;;;;;5.13;1.75;;;;;;;18.30;32.32;101266.41;5043047;28;20106;-79
2022/04/20 11:19:05;;;;;;;3.40;2.05;;;;;;;18.64;32.55;101262.88;5042063;28;20392;-79
2022/04/20 11:21:53;;;;;;;3.58;2.03;;;;;;;18.49;32.01;101257.78;5043520;28;20040;-77
2022/04/20 11:24:27;;;;;;;4.63;2.00;;;;;;;18.62;33.29;101264.91;5038893;28;20037;-79
2022/04/20 11:26:53;;;;;;;4.22;2.40;;;;;;;18.40;32.52;101251.13;5042758;28;20028;-78
2022/04/20 11:29:23;;;;;;;3.88;1.92;;;;;;;18.43;31.50;101253.34;5024952;28;20496;-79
2022/04/20 11:31:51;;;;;;;4.45;1.80;;;;;;;18.38;32.32;101247.84;5055536;28;20035;-80
2022/04/20 11:34:20;;;;;;;4.10;1.83;;;;;;;18.31;32.72;101249.69;5041580;28;20032;-79
2022/04/20 11:36:52;;;;;;;2.45;1.55;;;;;;;18.27;31.82;101244.00;5045701;28;20079;-79
2022/04/20 11:39:20;;;;;;;;;;;;;;;18.21;31.98;101251.84;5025312;28;20079;-79
2022/04/20 11:41:47;;;;;;;4.68;1.88;;;;;;;18.34;32.59;101241.38;5061790;28;19922;-79
2022/04/20 11:44:27;;;;;;;4.35;2.13;;;;;;;18.36;32.66;101235.94;5046461;28;20417;-80
2022/04/20 11:47:00;;;;;;;4.28;1.90;;;;;;;18.49;31.97;101233.34;5045681;28;20039;-79
2022/04/20 11:49:32;;;;;;;4.57;2.10;;;;;;;18.62;31.05;101233.38;5063656;28;20047;-79
2022/04/20 11:51:59;;;;;;;4.78;1.90;;;;;;;18.62;32.15;101227.34;5062569;28;20044;-81
2022/04/20 11:54:30;;;;;;;7.72;2.35;;;;;;;18.58;32.32;101228.75;5029471;28;20032;-78
2022/04/20 11:57:08;;;;;;;3.42;2.20;;;;;;;18.59;31.61;101222.47;5050226;28;20041;-80
2022/04/20 11:59:45;;;;;;;4.45;2.38;;;;;;;18.55;31.66;101229.94;5033400;28;20037;-78
2022/04/20 12:02:14;;;;;;;14.23;5.88;;;;;;;18.46;31.53;101225.91;5060746;28;20040;-79
2022/04/20 12:04:42;;;;;;;5.15;2.28;;;;;;;18.55;31.49;101218.63;5044130;28;20024;-79
2022/04/20 12:07:10;;;;;;;4.53;2.30;;;;;;;18.64;32.84;101212.19;5043100;28;20033;-78
2022/04/20 12:09:39;;;;;;;4.38;2.35;;;;;;;18.72;31.97;101214.63;5029406;28;20025;-78
2022/04/20 12:12:07;;;;;;;7.47;2.50;;;;;;;18.36;32.14;101218.38;5041750;28;20395;-79
2022/04/20 12:14:35;;;;;;;5.10;2.63;;;;;;;18.81;31.93;101213.44;5042287;28;20033;-79
2022/04/20 12:17:10;;;;;;;5.50;2.20;;;;;;;19.14;31.04;101204.00;5061031;28;20040;-79
2022/04/20 12:19:38;;;;;;;4.47;2.35;;;;;;;19.10;30.67;101208.84;5029210;28;20111;-80
2022/04/20 12:22:05;;;;;;;4.88;2.17;;;;;;;19.01;30.22;101202.97;5045778;28;20493;-80
2022/04/20 12:24:30;;;;;;;4.85;2.20;;;;;;;19.02;30.51;101214.28;5031814;28;20530;-79